sensor_id;sensor_type;location;lat;lon;timestamp;temperature;humidity
12907;DHT22;6521;50.498;8.474;2023-11-22T00:01:12;3.27;86.75
12907;DHT22;6521;50.498;8.474;2023-11-22T00:03:43;3.30;86.78
12907;DHT22;6521;50.498;8.474;2023-11-22T00:06:15;3.34;86.79
12907;DHT22;6521;50.498;8.474;2023-11-22T00:08:46;3.37;86.86
12907;DHT22;6521;50.498;8.474;2023-11-22T00:11:17;3.40;86.90
12907;DHT22;6521;50.498;8.474;2023-11-22T00:13:48;3.43;86.79
12907;DHT22;6521;50.498;8.474;2023-11-22T00:16:19;3.46;86.85
12907;DHT22;6521;50.498;8.474;2023-11-22T00:18:50;3.50;87.00
12907;DHT22;6521;50.498;8.474;2023-11-22T00:21:20;3.54;86.86
12907;DHT22;6521;50.498;8.474;2023-11-22T00:23:51;3.53;86.84
12907;DHT22;6521;50.498;8.474;2023-11-22T00:26:21;3.61;86.82
12907;DHT22;6521;50.498;8.474;2023-11-22T00:28:59;3.67;86.48
12907;DHT22;6521;50.498;8.474;2023-11-22T00:31:30;3.63;86.35
12907;DHT22;6521;50.498;8.474;2023-11-22T00:34:00;3.67;86.24
12907;DHT22;6521;50.498;8.474;2023-11-22T00:36:31;3.68;86.10
12907;DHT22;6521;50.498;8.474;2023-11-22T00:39:02;3.68;85.97
12907;DHT22;6521;50.498;8.474;2023-11-22T00:41:32;3.71;85.99
12907;DHT22;6521;50.498;8.474;2023-11-22T00:44:03;3.68;85.76
12907;DHT22;6521;50.498;8.474;2023-11-22T00:46:34;3.70;86.30
12907;DHT22;6521;50.498;8.474;2023-11-22T00:49:05;3.71;86.23
12907;DHT22;6521;50.498;8.474;2023-11-22T00:51:38;3.75;86.18
12907;DHT22;6521;50.498;8.474;2023-11-22T00:54:08;3.78;86.15
12907;DHT22;6521;50.498;8.474;2023-11-22T00:56:39;3.77;86.19
12907;DHT22;6521;50.498;8.474;2023-11-22T00:59:11;3.77;86.02
12907;DHT22;6521;50.498;8.474;2023-11-22T01:01:41;3.73;85.90
12907;DHT22;6521;50.498;8.474;2023-11-22T01:04:12;3.74;85.78
12907;DHT22;6521;50.498;8.474;2023-11-22T01:06:43;3.73;85.79
12907;DHT22;6521;50.498;8.474;2023-11-22T01:09:13;3.74;85.84
12907;DHT22;6521;50.498;8.474;2023-11-22T01:11:44;3.70;85.92
12907;DHT22;6521;50.498;8.474;2023-11-22T01:14:15;3.70;85.89
12907;DHT22;6521;50.498;8.474;2023-11-22T01:16:46;3.73;86.01
12907;DHT22;6521;50.498;8.474;2023-11-22T01:19:16;3.73;85.76
12907;DHT22;6521;50.498;8.474;2023-11-22T01:21:47;3.75;85.73
12907;DHT22;6521;50.498;8.474;2023-11-22T01:24:18;3.73;85.52
12907;DHT22;6521;50.498;8.474;2023-11-22T01:26:48;3.73;85.66
12907;DHT22;6521;50.498;8.474;2023-11-22T01:29:19;3.73;85.52
12907;DHT22;6521;50.498;8.474;2023-11-22T01:31:50;3.77;85.06
12907;DHT22;6521;50.498;8.474;2023-11-22T01:34:20;3.71;85.46
12907;DHT22;6521;50.498;8.474;2023-11-22T01:36:51;3.66;85.43
12907;DHT22;6521;50.498;8.474;2023-11-22T01:39:22;3.63;85.50
12907;DHT22;6521;50.498;8.474;2023-11-22T01:41:52;3.63;85.89
12907;DHT22;6521;50.498;8.474;2023-11-22T01:44:23;3.63;85.65
12907;DHT22;6521;50.498;8.474;2023-11-22T01:46:54;3.60;85.19
12907;DHT22;6521;50.498;8.474;2023-11-22T01:49:26;3.58;85.40
12907;DHT22;6521;50.498;8.474;2023-11-22T01:51:57;3.56;85.83
12907;DHT22;6521;50.498;8.474;2023-11-22T01:54:29;3.50;85.52
12907;DHT22;6521;50.498;8.474;2023-11-22T01:57:02;3.51;85.67
12907;DHT22;6521;50.498;8.474;2023-11-22T01:59:33;3.50;85.40
12907;DHT22;6521;50.498;8.474;2023-11-22T02:02:04;3.48;85.25
12907;DHT22;6521;50.498;8.474;2023-11-22T02:04:34;3.47;85.29
12907;DHT22;6521;50.498;8.474;2023-11-22T02:07:08;3.44;85.48
12907;DHT22;6521;50.498;8.474;2023-11-22T02:09:38;3.36;85.01
12907;DHT22;6521;50.498;8.474;2023-11-22T02:12:09;3.34;85.27
12907;DHT22;6521;50.498;8.474;2023-11-22T02:14:40;3.36;85.27
12907;DHT22;6521;50.498;8.474;2023-11-22T02:17:12;3.33;85.07
12907;DHT22;6521;50.498;8.474;2023-11-22T02:19:43;3.27;85.13
12907;DHT22;6521;50.498;8.474;2023-11-22T02:22:17;3.22;85.33
12907;DHT22;6521;50.498;8.474;2023-11-22T02:24:48;3.17;85.28
12907;DHT22;6521;50.498;8.474;2023-11-22T02:27:19;3.13;85.43
12907;DHT22;6521;50.498;8.474;2023-11-22T02:29:50;3.05;85.48
12907;DHT22;6521;50.498;8.474;2023-11-22T02:32:20;2.99;85.55
12907;DHT22;6521;50.498;8.474;2023-11-22T02:34:51;2.93;85.40
12907;DHT22;6521;50.498;8.474;2023-11-22T02:37:22;2.89;85.84
12907;DHT22;6521;50.498;8.474;2023-11-22T02:40:17;2.85;85.83
12907;DHT22;6521;50.498;8.474;2023-11-22T02:42:51;2.87;85.91
12907;DHT22;6521;50.498;8.474;2023-11-22T02:45:31;2.79;85.79
12907;DHT22;6521;50.498;8.474;2023-11-22T02:48:03;2.75;85.96
12907;DHT22;6521;50.498;8.474;2023-11-22T02:50:35;2.68;86.05
12907;DHT22;6521;50.498;8.474;2023-11-22T02:53:08;2.68;85.92
12907;DHT22;6521;50.498;8.474;2023-11-22T02:55:38;2.61;86.00
12907;DHT22;6521;50.498;8.474;2023-11-22T02:58:11;2.54;86.27
12907;DHT22;6521;50.498;8.474;2023-11-22T03:00:43;2.47;86.55
12907;DHT22;6521;50.498;8.474;2023-11-22T03:03:14;2.42;86.61
12907;DHT22;6521;50.498;8.474;2023-11-22T03:05:44;2.41;87.12
12907;DHT22;6521;50.498;8.474;2023-11-22T03:08:16;2.38;87.22
12907;DHT22;6521;50.498;8.474;2023-11-22T03:11:00;2.36;86.90
12907;DHT22;6521;50.498;8.474;2023-11-22T03:13:32;2.31;87.09
12907;DHT22;6521;50.498;8.474;2023-11-22T03:16:03;2.30;87.12
12907;DHT22;6521;50.498;8.474;2023-11-22T03:18:34;2.31;87.29
12907;DHT22;6521;50.498;8.474;2023-11-22T03:21:06;2.24;87.29
12907;DHT22;6521;50.498;8.474;2023-11-22T03:23:37;2.21;87.45
12907;DHT22;6521;50.498;8.474;2023-11-22T03:26:09;2.16;87.49
12907;DHT22;6521;50.498;8.474;2023-11-22T03:28:40;2.13;87.46
12907;DHT22;6521;50.498;8.474;2023-11-22T03:31:11;2.07;87.49
12907;DHT22;6521;50.498;8.474;2023-11-22T03:33:41;2.06;87.35
12907;DHT22;6521;50.498;8.474;2023-11-22T03:36:12;2.02;87.46
12907;DHT22;6521;50.498;8.474;2023-11-22T03:38:43;2.02;87.49
12907;DHT22;6521;50.498;8.474;2023-11-22T03:41:14;1.98;87.28
12907;DHT22;6521;50.498;8.474;2023-11-22T03:43:44;1.92;87.40
12907;DHT22;6521;50.498;8.474;2023-11-22T03:46:15;1.95;87.37
12907;DHT22;6521;50.498;8.474;2023-11-22T03:48:46;1.89;87.21
12907;DHT22;6521;50.498;8.474;2023-11-22T03:51:17;1.82;87.25
12907;DHT22;6521;50.498;8.474;2023-11-22T03:53:48;1.83;87.19
12907;DHT22;6521;50.498;8.474;2023-11-22T03:56:19;1.82;87.40
12907;DHT22;6521;50.498;8.474;2023-11-22T03:58:49;1.86;87.58
12907;DHT22;6521;50.498;8.474;2023-11-22T04:01:20;1.85;87.13
12907;DHT22;6521;50.498;8.474;2023-11-22T04:03:51;1.83;87.22
12907;DHT22;6521;50.498;8.474;2023-11-22T04:06:22;1.80;87.25
12907;DHT22;6521;50.498;8.474;2023-11-22T04:08:53;1.78;87.23
12907;DHT22;6521;50.498;8.474;2023-11-22T04:11:24;1.80;87.45
12907;DHT22;6521;50.498;8.474;2023-11-22T04:13:55;1.82;87.24
12907;DHT22;6521;50.498;8.474;2023-11-22T04:16:26;1.85;87.02
12907;DHT22;6521;50.498;8.474;2023-11-22T04:18:57;1.85;86.98
12907;DHT22;6521;50.498;8.474;2023-11-22T04:21:27;1.87;86.95
12907;DHT22;6521;50.498;8.474;2023-11-22T04:23:58;1.82;86.70
12907;DHT22;6521;50.498;8.474;2023-11-22T04:26:29;1.78;86.62
12907;DHT22;6521;50.498;8.474;2023-11-22T04:29:00;1.68;86.35
12907;DHT22;6521;50.498;8.474;2023-11-22T04:31:30;1.65;86.39
12907;DHT22;6521;50.498;8.474;2023-11-22T04:34:01;1.55;86.45
12907;DHT22;6521;50.498;8.474;2023-11-22T04:36:32;1.55;86.26
12907;DHT22;6521;50.498;8.474;2023-11-22T04:39:03;1.48;86.09
12907;DHT22;6521;50.498;8.474;2023-11-22T04:41:34;1.44;86.03
12907;DHT22;6521;50.498;8.474;2023-11-22T04:44:05;1.41;85.60
12907;DHT22;6521;50.498;8.474;2023-11-22T04:46:36;1.38;85.61
12907;DHT22;6521;50.498;8.474;2023-11-22T04:49:07;1.38;85.13
12907;DHT22;6521;50.498;8.474;2023-11-22T04:51:38;1.34;85.11
12907;DHT22;6521;50.498;8.474;2023-11-22T04:54:08;1.32;85.20
12907;DHT22;6521;50.498;8.474;2023-11-22T04:56:39;1.32;84.90
12907;DHT22;6521;50.498;8.474;2023-11-22T04:59:10;1.32;84.73
12907;DHT22;6521;50.498;8.474;2023-11-22T05:01:40;1.31;84.32
12907;DHT22;6521;50.498;8.474;2023-11-22T05:04:11;1.28;84.30
12907;DHT22;6521;50.498;8.474;2023-11-22T05:06:42;1.28;84.37
12907;DHT22;6521;50.498;8.474;2023-11-22T05:09:14;1.26;84.12
12907;DHT22;6521;50.498;8.474;2023-11-22T05:11:45;1.26;84.31
12907;DHT22;6521;50.498;8.474;2023-11-22T05:14:16;1.31;84.26
12907;DHT22;6521;50.498;8.474;2023-11-22T05:16:46;1.30;84.10
12907;DHT22;6521;50.498;8.474;2023-11-22T05:19:17;1.30;83.99
12907;DHT22;6521;50.498;8.474;2023-11-22T05:21:47;1.21;84.03
12907;DHT22;6521;50.498;8.474;2023-11-22T05:24:18;1.20;83.99
12907;DHT22;6521;50.498;8.474;2023-11-22T05:26:49;1.17;83.69
12907;DHT22;6521;50.498;8.474;2023-11-22T05:29:20;1.14;83.57
12907;DHT22;6521;50.498;8.474;2023-11-22T05:31:50;1.17;83.40
12907;DHT22;6521;50.498;8.474;2023-11-22T05:34:23;1.16;83.48
12907;DHT22;6521;50.498;8.474;2023-11-22T05:36:53;1.11;83.45
12907;DHT22;6521;50.498;8.474;2023-11-22T05:39:25;1.10;83.39
12907;DHT22;6521;50.498;8.474;2023-11-22T05:41:55;1.08;83.39
12907;DHT22;6521;50.498;8.474;2023-11-22T05:44:27;1.04;83.02
12907;DHT22;6521;50.498;8.474;2023-11-22T05:46:57;1.03;82.98
12907;DHT22;6521;50.498;8.474;2023-11-22T05:49:28;0.97;82.40
12907;DHT22;6521;50.498;8.474;2023-11-22T05:51:58;0.87;81.55
12907;DHT22;6521;50.498;8.474;2023-11-22T05:54:29;0.89;81.63
12907;DHT22;6521;50.498;8.474;2023-11-22T05:57:00;0.84;81.00
12907;DHT22;6521;50.498;8.474;2023-11-22T05:59:30;0.82;81.44
12907;DHT22;6521;50.498;8.474;2023-11-22T06:02:01;0.83;81.17
12907;DHT22;6521;50.498;8.474;2023-11-22T06:04:32;0.83;81.37
12907;DHT22;6521;50.498;8.474;2023-11-22T06:07:03;0.82;81.27
12907;DHT22;6521;50.498;8.474;2023-11-22T06:09:35;0.79;81.49
12907;DHT22;6521;50.498;8.474;2023-11-22T06:12:07;0.70;81.33
12907;DHT22;6521;50.498;8.474;2023-11-22T06:14:37;0.66;81.06
12907;DHT22;6521;50.498;8.474;2023-11-22T06:17:08;0.69;81.52
12907;DHT22;6521;50.498;8.474;2023-11-22T06:19:39;0.68;81.55
12907;DHT22;6521;50.498;8.474;2023-11-22T06:22:09;0.66;81.18
12907;DHT22;6521;50.498;8.474;2023-11-22T06:24:40;0.60;81.83
12907;DHT22;6521;50.498;8.474;2023-11-22T06:27:11;0.60;82.07
12907;DHT22;6521;50.498;8.474;2023-11-22T06:29:42;0.56;81.99
12907;DHT22;6521;50.498;8.474;2023-11-22T06:32:14;0.58;81.95
12907;DHT22;6521;50.498;8.474;2023-11-22T06:34:45;0.56;82.06
12907;DHT22;6521;50.498;8.474;2023-11-22T06:37:16;0.51;82.16
12907;DHT22;6521;50.498;8.474;2023-11-22T06:39:46;0.52;82.55
12907;DHT22;6521;50.498;8.474;2023-11-22T06:42:17;0.49;82.55
12907;DHT22;6521;50.498;8.474;2023-11-22T06:44:49;0.55;82.85
12907;DHT22;6521;50.498;8.474;2023-11-22T06:47:23;0.52;82.90
12907;DHT22;6521;50.498;8.474;2023-11-22T06:49:53;0.48;82.31
12907;DHT22;6521;50.498;8.474;2023-11-22T06:52:24;0.44;82.72
12907;DHT22;6521;50.498;8.474;2023-11-22T06:54:55;0.37;82.71
12907;DHT22;6521;50.498;8.474;2023-11-22T06:57:26;0.39;82.77
12907;DHT22;6521;50.498;8.474;2023-11-22T06:59:59;0.31;82.71
12907;DHT22;6521;50.498;8.474;2023-11-22T07:02:35;0.26;83.29
12907;DHT22;6521;50.498;8.474;2023-11-22T07:05:06;0.28;83.05
12907;DHT22;6521;50.498;8.474;2023-11-22T07:07:40;0.25;83.24
12907;DHT22;6521;50.498;8.474;2023-11-22T07:10:11;0.26;83.44
12907;DHT22;6521;50.498;8.474;2023-11-22T07:12:41;0.26;83.55
12907;DHT22;6521;50.498;8.474;2023-11-22T07:15:13;0.26;83.48
12907;DHT22;6521;50.498;8.474;2023-11-22T07:17:44;0.33;83.48
12907;DHT22;6521;50.498;8.474;2023-11-22T07:20:15;0.32;83.61
12907;DHT22;6521;50.498;8.474;2023-11-22T07:22:47;0.29;83.70
12907;DHT22;6521;50.498;8.474;2023-11-22T07:25:25;0.33;83.37
12907;DHT22;6521;50.498;8.474;2023-11-22T07:27:55;0.38;83.19
12907;DHT22;6521;50.498;8.474;2023-11-22T07:30:26;0.35;83.36
12907;DHT22;6521;50.498;8.474;2023-11-22T07:33:00;0.37;83.31
12907;DHT22;6521;50.498;8.474;2023-11-22T07:35:31;0.35;83.65
12907;DHT22;6521;50.498;8.474;2023-11-22T07:38:02;0.39;83.59
12907;DHT22;6521;50.498;8.474;2023-11-22T07:40:34;0.37;83.54
12907;DHT22;6521;50.498;8.474;2023-11-22T07:43:05;0.38;83.36
12907;DHT22;6521;50.498;8.474;2023-11-22T07:45:37;0.39;83.59
12907;DHT22;6521;50.498;8.474;2023-11-22T07:48:08;0.39;83.65
12907;DHT22;6521;50.498;8.474;2023-11-22T07:50:41;0.41;83.40
12907;DHT22;6521;50.498;8.474;2023-11-22T07:53:15;0.45;83.63
12907;DHT22;6521;50.498;8.474;2023-11-22T07:55:47;0.44;83.79
12907;DHT22;6521;50.498;8.474;2023-11-22T07:58:18;0.48;83.65
12907;DHT22;6521;50.498;8.474;2023-11-22T08:00:48;0.46;83.99
12907;DHT22;6521;50.498;8.474;2023-11-22T08:03:19;0.46;83.91
12907;DHT22;6521;50.498;8.474;2023-11-22T08:05:54;0.44;83.60
12907;DHT22;6521;50.498;8.474;2023-11-22T08:08:26;0.46;83.73
12907;DHT22;6521;50.498;8.474;2023-11-22T08:10:56;0.51;83.63
12907;DHT22;6521;50.498;8.474;2023-11-22T08:13:28;0.53;83.61
12907;DHT22;6521;50.498;8.474;2023-11-22T08:16:00;0.48;83.80
12907;DHT22;6521;50.498;8.474;2023-11-22T08:18:31;0.55;83.76
12907;DHT22;6521;50.498;8.474;2023-11-22T08:21:02;0.55;84.35
12907;DHT22;6521;50.498;8.474;2023-11-22T08:23:32;0.58;83.87
12907;DHT22;6521;50.498;8.474;2023-11-22T08:26:03;0.60;84.13
12907;DHT22;6521;50.498;8.474;2023-11-22T08:28:35;0.59;83.38
12907;DHT22;6521;50.498;8.474;2023-11-22T08:31:05;0.59;83.23
12907;DHT22;6521;50.498;8.474;2023-11-22T08:33:47;0.59;83.37
12907;DHT22;6521;50.498;8.474;2023-11-22T08:36:17;0.60;83.19
12907;DHT22;6521;50.498;8.474;2023-11-22T08:38:49;0.68;83.89
12907;DHT22;6521;50.498;8.474;2023-11-22T08:41:20;0.70;82.75
12907;DHT22;6521;50.498;8.474;2023-11-22T08:43:52;0.70;83.18
12907;DHT22;6521;50.498;8.474;2023-11-22T08:46:22;0.73;82.77
12907;DHT22;6521;50.498;8.474;2023-11-22T08:48:53;0.66;83.01
12907;DHT22;6521;50.498;8.474;2023-11-22T08:51:24;0.65;82.72
12907;DHT22;6521;50.498;8.474;2023-11-22T08:53:55;0.65;82.37
12907;DHT22;6521;50.498;8.474;2023-11-22T08:56:25;0.60;82.67
12907;DHT22;6521;50.498;8.474;2023-11-22T08:58:56;0.60;82.50
12907;DHT22;6521;50.498;8.474;2023-11-22T09:01:27;0.62;82.15
12907;DHT22;6521;50.498;8.474;2023-11-22T09:03:57;0.75;81.96
12907;DHT22;6521;50.498;8.474;2023-11-22T09:06:28;0.80;81.98
12907;DHT22;6521;50.498;8.474;2023-11-22T09:09:00;0.93;82.28
12907;DHT22;6521;50.498;8.474;2023-11-22T09:11:31;1.05;81.95
12907;DHT22;6521;50.498;8.474;2023-11-22T09:14:05;1.24;82.00
12907;DHT22;6521;50.498;8.474;2023-11-22T09:16:39;1.38;81.61
12907;DHT22;6521;50.498;8.474;2023-11-22T09:19:11;1.49;80.94
12907;DHT22;6521;50.498;8.474;2023-11-22T09:21:42;1.66;81.24
12907;DHT22;6521;50.498;8.474;2023-11-22T09:24:12;1.79;80.37
12907;DHT22;6521;50.498;8.474;2023-11-22T09:26:43;1.90;80.21
12907;DHT22;6521;50.498;8.474;2023-11-22T09:29:14;1.96;79.59
12907;DHT22;6521;50.498;8.474;2023-11-22T09:31:44;2.03;79.37
12907;DHT22;6521;50.498;8.474;2023-11-22T09:34:18;2.06;79.11
12907;DHT22;6521;50.498;8.474;2023-11-22T09:36:50;2.09;79.11
12907;DHT22;6521;50.498;8.474;2023-11-22T09:39:20;2.09;78.12
12907;DHT22;6521;50.498;8.474;2023-11-22T09:41:52;2.16;78.05
12907;DHT22;6521;50.498;8.474;2023-11-22T09:44:24;2.07;77.25
12907;DHT22;6521;50.498;8.474;2023-11-22T09:46:56;2.06;76.35
12907;DHT22;6521;50.498;8.474;2023-11-22T09:49:27;2.02;77.05
12907;DHT22;6521;50.498;8.474;2023-11-22T09:52:01;2.07;77.40
12907;DHT22;6521;50.498;8.474;2023-11-22T09:54:35;2.14;76.96
12907;DHT22;6521;50.498;8.474;2023-11-22T09:57:07;2.17;76.46
12907;DHT22;6521;50.498;8.474;2023-11-22T09:59:41;2.21;76.45
12907;DHT22;6521;50.498;8.474;2023-11-22T10:02:12;2.19;76.28
12907;DHT22;6521;50.498;8.474;2023-11-22T10:04:43;2.06;75.56
12907;DHT22;6521;50.498;8.474;2023-11-22T10:07:14;2.10;75.86
12907;DHT22;6521;50.498;8.474;2023-11-22T10:09:44;2.23;76.63
12907;DHT22;6521;50.498;8.474;2023-11-22T10:12:19;2.34;76.71
12907;DHT22;6521;50.498;8.474;2023-11-22T10:14:51;2.44;75.32
12907;DHT22;6521;50.498;8.474;2023-11-22T10:17:22;2.61;74.80
12907;DHT22;6521;50.498;8.474;2023-11-22T10:19:53;3.31;74.77
12907;DHT22;6521;50.498;8.474;2023-11-22T10:22:25;4.12;73.44
12907;DHT22;6521;50.498;8.474;2023-11-22T10:25:02;4.35;69.67
12907;DHT22;6521;50.498;8.474;2023-11-22T10:27:34;4.29;69.72
12907;DHT22;6521;50.498;8.474;2023-11-22T10:30:05;4.15;69.49
12907;DHT22;6521;50.498;8.474;2023-11-22T10:32:37;4.13;70.17
12907;DHT22;6521;50.498;8.474;2023-11-22T10:35:09;4.61;70.69
12907;DHT22;6521;50.498;8.474;2023-11-22T10:37:41;5.22;68.91
12907;DHT22;6521;50.498;8.474;2023-11-22T10:40:14;5.66;67.62
12907;DHT22;6521;50.498;8.474;2023-11-22T10:42:47;5.87;66.07
12907;DHT22;6521;50.498;8.474;2023-11-22T10:45:21;5.86;66.43
12907;DHT22;6521;50.498;8.474;2023-11-22T10:47:54;5.87;65.40
12907;DHT22;6521;50.498;8.474;2023-11-22T10:50:25;5.91;65.61
12907;DHT22;6521;50.498;8.474;2023-11-22T10:52:59;5.87;64.96
12907;DHT22;6521;50.498;8.474;2023-11-22T10:55:32;5.83;65.09
12907;DHT22;6521;50.498;8.474;2023-11-22T10:58:03;5.94;65.11
12907;DHT22;6521;50.498;8.474;2023-11-22T11:00:34;6.14;63.84
12907;DHT22;6521;50.498;8.474;2023-11-22T11:03:08;6.14;63.15
12907;DHT22;6521;50.498;8.474;2023-11-22T11:05:52;6.04;63.93
12907;DHT22;6521;50.498;8.474;2023-11-22T11:08:28;5.90;64.29
12907;DHT22;6521;50.498;8.474;2023-11-22T11:10:59;5.77;65.14
12907;DHT22;6521;50.498;8.474;2023-11-22T11:13:32;5.86;64.66
12907;DHT22;6521;50.498;8.474;2023-11-22T11:16:03;5.95;64.18
12907;DHT22;6521;50.498;8.474;2023-11-22T11:18:35;5.93;64.34
12907;DHT22;6521;50.498;8.474;2023-11-22T11:21:09;5.83;62.85
12907;DHT22;6521;50.498;8.474;2023-11-22T11:23:43;5.83;63.34
12907;DHT22;6521;50.498;8.474;2023-11-22T11:26:16;5.76;63.86
12907;DHT22;6521;50.498;8.474;2023-11-22T11:28:51;5.64;63.51
12907;DHT22;6521;50.498;8.474;2023-11-22T11:31:22;5.59;63.36
12907;DHT22;6521;50.498;8.474;2023-11-22T11:33:54;5.59;62.77
12907;DHT22;6521;50.498;8.474;2023-11-22T11:36:30;5.57;64.07
12907;DHT22;6521;50.498;8.474;2023-11-22T11:39:05;5.70;64.47
12907;DHT22;6521;50.498;8.474;2023-11-22T11:41:40;6.00;66.50
12907;DHT22;6521;50.498;8.474;2023-11-22T11:44:11;6.25;65.68
12907;DHT22;6521;50.498;8.474;2023-11-22T11:46:43;6.28;64.66
12907;DHT22;6521;50.498;8.474;2023-11-22T11:49:14;6.35;63.60
12907;DHT22;6521;50.498;8.474;2023-11-22T11:51:45;6.45;63.22
12907;DHT22;6521;50.498;8.474;2023-11-22T11:54:16;6.34;61.52
12907;DHT22;6521;50.498;8.474;2023-11-22T11:56:47;6.10;63.96
12907;DHT22;6521;50.498;8.474;2023-11-22T11:59:22;6.11;62.27
12907;DHT22;6521;50.498;8.474;2023-11-22T12:01:53;6.22;61.97
12907;DHT22;6521;50.498;8.474;2023-11-22T12:04:25;6.15;62.44
12907;DHT22;6521;50.498;8.474;2023-11-22T12:06:56;6.13;62.45
12907;DHT22;6521;50.498;8.474;2023-11-22T12:09:27;5.97;60.33
12907;DHT22;6521;50.498;8.474;2023-11-22T12:12:01;5.83;62.20
12907;DHT22;6521;50.498;8.474;2023-11-22T12:14:33;5.80;62.71
12907;DHT22;6521;50.498;8.474;2023-11-22T12:17:04;5.80;62.71
12907;DHT22;6521;50.498;8.474;2023-11-22T12:19:36;5.87;63.03
12907;DHT22;6521;50.498;8.474;2023-11-22T12:22:07;6.04;63.38
12907;DHT22;6521;50.498;8.474;2023-11-22T12:24:38;6.05;62.17
12907;DHT22;6521;50.498;8.474;2023-11-22T12:27:09;6.20;62.25
12907;DHT22;6521;50.498;8.474;2023-11-22T12:29:40;5.93;61.88
12907;DHT22;6521;50.498;8.474;2023-11-22T12:32:12;5.90;63.43
12907;DHT22;6521;50.498;8.474;2023-11-22T12:34:43;5.77;63.13
12907;DHT22;6521;50.498;8.474;2023-11-22T12:37:14;5.70;63.74
12907;DHT22;6521;50.498;8.474;2023-11-22T12:39:46;5.84;62.62
12907;DHT22;6521;50.498;8.474;2023-11-22T12:42:19;5.87;61.17
12907;DHT22;6521;50.498;8.474;2023-11-22T12:44:51;5.97;62.39
12907;DHT22;6521;50.498;8.474;2023-11-22T12:47:34;6.21;61.59
12907;DHT22;6521;50.498;8.474;2023-11-22T12:50:35;6.48;61.20
12907;DHT22;6521;50.498;8.474;2023-11-22T12:53:16;6.72;59.56
12907;DHT22;6521;50.498;8.474;2023-11-22T12:55:48;6.57;57.31
12907;DHT22;6521;50.498;8.474;2023-11-22T12:58:24;6.42;55.85
12907;DHT22;6521;50.498;8.474;2023-11-22T13:00:55;6.05;55.15
12907;DHT22;6521;50.498;8.474;2023-11-22T13:03:28;5.86;57.80
12907;DHT22;6521;50.498;8.474;2023-11-22T13:05:59;5.97;59.10
12907;DHT22;6521;50.498;8.474;2023-11-22T13:08:30;6.17;59.83
12907;DHT22;6521;50.498;8.474;2023-11-22T13:11:02;6.31;60.27
12907;DHT22;6521;50.498;8.474;2023-11-22T13:13:33;6.39;60.14
12907;DHT22;6521;50.498;8.474;2023-11-22T13:16:05;6.34;59.99
12907;DHT22;6521;50.498;8.474;2023-11-22T13:18:36;6.35;60.72
12907;DHT22;6521;50.498;8.474;2023-11-22T13:21:07;6.45;60.32
12907;DHT22;6521;50.498;8.474;2023-11-22T13:23:38;6.46;58.28
12907;DHT22;6521;50.498;8.474;2023-11-22T13:26:09;6.49;59.37
12907;DHT22;6521;50.498;8.474;2023-11-22T13:28:43;6.50;58.45
12907;DHT22;6521;50.498;8.474;2023-11-22T13:31:14;6.32;56.82
12907;DHT22;6521;50.498;8.474;2023-11-22T13:33:45;6.25;57.26
12907;DHT22;6521;50.498;8.474;2023-11-22T13:36:17;6.26;58.42
12907;DHT22;6521;50.498;8.474;2023-11-22T13:38:48;6.41;58.21
12907;DHT22;6521;50.498;8.474;2023-11-22T13:41:19;5.98;55.71
12907;DHT22;6521;50.498;8.474;2023-11-22T13:43:50;6.13;58.78
12907;DHT22;6521;50.498;8.474;2023-11-22T13:46:21;6.21;58.86
12907;DHT22;6521;50.498;8.474;2023-11-22T13:48:52;6.14;59.26
12907;DHT22;6521;50.498;8.474;2023-11-22T13:51:22;6.08;61.38
12907;DHT22;6521;50.498;8.474;2023-11-22T13:53:55;6.00;61.09
12907;DHT22;6521;50.498;8.474;2023-11-22T13:56:26;5.90;61.89
12907;DHT22;6521;50.498;8.474;2023-11-22T13:58:56;5.71;61.99
12907;DHT22;6521;50.498;8.474;2023-11-22T14:01:28;5.64;62.10
12907;DHT22;6521;50.498;8.474;2023-11-22T14:03:58;5.60;62.26
12907;DHT22;6521;50.498;8.474;2023-11-22T14:06:29;5.62;62.37
12907;DHT22;6521;50.498;8.474;2023-11-22T14:08:59;5.36;61.26
12907;DHT22;6521;50.498;8.474;2023-11-22T14:11:30;5.18;61.61
12907;DHT22;6521;50.498;8.474;2023-11-22T14:14:02;4.92;61.07
12907;DHT22;6521;50.498;8.474;2023-11-22T14:16:34;4.66;60.90
12907;DHT22;6521;50.498;8.474;2023-11-22T14:19:05;4.45;62.38
12907;DHT22;6521;50.498;8.474;2023-11-22T14:21:37;4.36;63.30
12907;DHT22;6521;50.498;8.474;2023-11-22T14:24:08;4.23;62.95
12907;DHT22;6521;50.498;8.474;2023-11-22T14:26:38;3.91;63.09
12907;DHT22;6521;50.498;8.474;2023-11-22T14:29:09;3.78;64.14
12907;DHT22;6521;50.498;8.474;2023-11-22T14:31:40;3.87;64.88
12907;DHT22;6521;50.498;8.474;2023-11-22T14:34:11;3.71;63.87
12907;DHT22;6521;50.498;8.474;2023-11-22T14:36:42;3.43;64.51
12907;DHT22;6521;50.498;8.474;2023-11-22T14:39:13;3.33;65.07
12907;DHT22;6521;50.498;8.474;2023-11-22T14:41:44;3.12;65.65
12907;DHT22;6521;50.498;8.474;2023-11-22T14:44:16;3.05;66.57
12907;DHT22;6521;50.498;8.474;2023-11-22T14:46:47;3.00;66.56
12907;DHT22;6521;50.498;8.474;2023-11-22T14:49:19;2.99;66.80
12907;DHT22;6521;50.498;8.474;2023-11-22T14:51:51;2.99;66.84
12907;DHT22;6521;50.498;8.474;2023-11-22T14:54:22;3.00;66.55
12907;DHT22;6521;50.498;8.474;2023-11-22T14:56:54;2.99;66.64
12907;DHT22;6521;50.498;8.474;2023-11-22T14:59:29;2.99;67.49
12907;DHT22;6521;50.498;8.474;2023-11-22T15:02:03;2.81;66.74
12907;DHT22;6521;50.498;8.474;2023-11-22T15:04:37;2.75;67.51
12907;DHT22;6521;50.498;8.474;2023-11-22T15:07:08;2.75;67.75
12907;DHT22;6521;50.498;8.474;2023-11-22T15:09:39;2.79;68.54
12907;DHT22;6521;50.498;8.474;2023-11-22T15:12:10;2.79;68.87
12907;DHT22;6521;50.498;8.474;2023-11-22T15:14:40;2.81;69.61
12907;DHT22;6521;50.498;8.474;2023-11-22T15:17:14;2.84;69.53
12907;DHT22;6521;50.498;8.474;2023-11-22T15:19:44;2.79;69.32
12907;DHT22;6521;50.498;8.474;2023-11-22T15:22:16;2.74;68.38
12907;DHT22;6521;50.498;8.474;2023-11-22T15:24:47;2.68;68.62
12907;DHT22;6521;50.498;8.474;2023-11-22T15:27:17;2.65;69.80
12907;DHT22;6521;50.498;8.474;2023-11-22T15:29:48;2.59;69.55
12907;DHT22;6521;50.498;8.474;2023-11-22T15:32:19;2.64;69.59
12907;DHT22;6521;50.498;8.474;2023-11-22T15:34:50;2.55;69.35
12907;DHT22;6521;50.498;8.474;2023-11-22T15:37:20;2.48;69.85
12907;DHT22;6521;50.498;8.474;2023-11-22T15:39:51;2.45;69.90
12907;DHT22;6521;50.498;8.474;2023-11-22T15:42:22;2.37;70.08
12907;DHT22;6521;50.498;8.474;2023-11-22T15:44:52;2.33;70.19
12907;DHT22;6521;50.498;8.474;2023-11-22T15:47:23;2.36;70.65
12907;DHT22;6521;50.498;8.474;2023-11-22T15:49:54;2.34;70.51
12907;DHT22;6521;50.498;8.474;2023-11-22T15:52:27;2.33;70.25
12907;DHT22;6521;50.498;8.474;2023-11-22T15:54:58;2.26;70.41
12907;DHT22;6521;50.498;8.474;2023-11-22T15:57:29;2.17;71.00
12907;DHT22;6521;50.498;8.474;2023-11-22T16:00:01;2.09;71.08
12907;DHT22;6521;50.498;8.474;2023-11-22T16:02:42;2.03;71.15
12907;DHT22;6521;50.498;8.474;2023-11-22T16:05:13;1.99;71.56
12907;DHT22;6521;50.498;8.474;2023-11-22T16:07:43;1.96;72.35
12907;DHT22;6521;50.498;8.474;2023-11-22T16:10:14;1.99;72.18
12907;DHT22;6521;50.498;8.474;2023-11-22T16:12:46;1.89;72.82
12907;DHT22;6521;50.498;8.474;2023-11-22T16:15:17;1.86;73.29
12907;DHT22;6521;50.498;8.474;2023-11-22T16:17:48;1.89;73.60
12907;DHT22;6521;50.498;8.474;2023-11-22T16:20:19;1.89;73.41
12907;DHT22;6521;50.498;8.474;2023-11-22T16:22:52;1.75;73.20
12907;DHT22;6521;50.498;8.474;2023-11-22T16:25:22;1.73;73.53
12907;DHT22;6521;50.498;8.474;2023-11-22T16:27:54;1.66;73.94
12907;DHT22;6521;50.498;8.474;2023-11-22T16:30:25;1.65;74.65